createdAt,value
2018-09-23T00:00:41.921Z,13.20
2018-09-23T00:01:46.311Z,13.10
2018-09-23T00:02:50.671Z,13.10
2018-09-23T00:03:54.927Z,13.10
2018-09-23T00:04:59.098Z,13.10
2018-09-23T00:06:03.398Z,13.10
2018-09-23T00:07:07.630Z,13.00
2018-09-23T00:08:11.861Z,13.00
2018-09-23T00:09:15.957Z,13.00
2018-09-23T00:10:20.077Z,12.90
2018-09-23T00:11:24.490Z,12.90
2018-09-23T00:12:28.938Z,12.90
2018-09-23T00:13:33.349Z,13.10
2018-09-23T00:14:37.584Z,13.10
2018-09-23T00:15:41.765Z,13.10
2018-09-23T00:16:45.902Z,13.10
2018-09-23T00:17:50.224Z,13.20
2018-09-23T00:18:54.341Z,13.20
2018-09-23T00:19:59.045Z,13.20
2018-09-23T00:21:03.154Z,13.20
2018-09-23T00:22:07.760Z,13.10
2018-09-23T00:23:12.308Z,13.10
2018-09-23T00:24:16.618Z,13.00
2018-09-23T00:25:20.888Z,12.90
2018-09-23T00:26:25.099Z,12.90
2018-09-23T00:27:29.352Z,12.80
2018-09-23T00:28:33.720Z,12.70
2018-09-23T00:29:43.291Z,12.80
2018-09-23T00:30:47.570Z,12.70
2018-09-23T00:31:52.630Z,12.70
2018-09-23T00:32:56.914Z,12.70
2018-09-23T00:34:01.220Z,12.80
2018-09-23T00:35:05.610Z,12.70
2018-09-23T00:36:09.690Z,12.70
2018-09-23T00:37:13.804Z,12.80
2018-09-23T00:38:18.098Z,12.70
2018-09-23T00:39:22.286Z,12.70
2018-09-23T00:40:26.925Z,12.70
2018-09-23T00:41:31.081Z,12.70
2018-09-23T00:42:35.272Z,12.70
2018-09-23T00:43:39.502Z,12.70
2018-09-23T00:44:43.745Z,12.60
2018-09-23T00:45:48.452Z,12.60
2018-09-23T00:46:52.553Z,12.60
2018-09-23T00:47:57.066Z,12.60
2018-09-23T00:49:01.343Z,12.70
2018-09-23T00:50:05.891Z,12.70
2018-09-23T00:51:10.209Z,12.60
2018-09-23T00:52:14.523Z,12.60
2018-09-23T00:53:18.750Z,12.60
2018-09-23T00:54:23.038Z,12.70
2018-09-23T00:55:27.502Z,12.70
2018-09-23T00:56:31.833Z,12.60
2018-09-23T00:57:36.320Z,12.60
2018-09-23T00:58:40.435Z,12.60
2018-09-23T00:59:44.618Z,12.70
2018-09-23T01:00:49.287Z,12.70
2018-09-23T01:01:53.631Z,12.70
2018-09-23T01:02:58.033Z,12.70
2018-09-23T01:04:02.578Z,12.60
2018-09-23T01:05:06.868Z,12.60
2018-09-23T01:06:11.293Z,12.60
2018-09-23T01:07:15.501Z,12.70
2018-09-23T01:08:19.824Z,12.80
2018-09-23T01:09:24.088Z,12.80
2018-09-23T01:10:28.632Z,12.70
2018-09-23T01:11:32.731Z,12.70
2018-09-23T01:12:36.937Z,12.70
2018-09-23T01:13:41.486Z,12.70
2018-09-23T01:14:45.882Z,12.60
2018-09-23T01:15:50.090Z,12.60
2018-09-23T01:16:54.689Z,12.50
2018-09-23T01:17:59.211Z,12.60
2018-09-23T01:19:03.651Z,12.60
2018-09-23T01:20:08.234Z,12.70
2018-09-23T01:21:12.748Z,12.80
2018-09-23T01:22:17.453Z,12.80
2018-09-23T01:23:21.505Z,12.90
2018-09-23T01:24:25.623Z,12.90
2018-09-23T01:25:29.706Z,12.80
2018-09-23T01:26:34.046Z,12.80
2018-09-23T01:27:38.370Z,12.70
2018-09-23T01:28:42.765Z,12.80
2018-09-23T01:29:47.147Z,12.80
2018-09-23T01:30:51.598Z,12.80
2018-09-23T01:31:56.158Z,12.80
2018-09-23T01:33:00.334Z,12.70
2018-09-23T01:34:04.641Z,12.70
2018-09-23T01:35:08.931Z,12.70
2018-09-23T01:36:13.121Z,12.70
2018-09-23T01:37:17.396Z,12.70
2018-09-23T01:38:21.550Z,12.70
2018-09-23T01:39:26.158Z,12.70
2018-09-23T01:40:30.481Z,12.70
2018-09-23T01:41:34.703Z,12.60
2018-09-23T01:42:38.834Z,12.50
2018-09-23T01:43:42.958Z,12.60
2018-09-23T01:44:47.613Z,12.60
2018-09-23T01:45:52.329Z,12.60
2018-09-23T01:46:56.706Z,12.60
2018-09-23T01:48:01.018Z,12.60
2018-09-23T01:49:05.362Z,12.60
2018-09-23T01:50:09.872Z,12.60
2018-09-23T01:51:14.040Z,12.70
2018-09-23T01:52:18.286Z,12.70
2018-09-23T01:53:22.467Z,12.70
2018-09-23T01:54:26.698Z,12.80
2018-09-23T01:55:30.954Z,12.80
2018-09-23T01:56:35.112Z,12.70
2018-09-23T01:57:39.245Z,12.70
2018-09-23T01:58:43.677Z,12.70
2018-09-23T01:59:47.995Z,12.70
2018-09-23T02:00:52.233Z,12.70
2018-09-23T02:01:56.694Z,12.80
2018-09-23T02:03:00.998Z,12.80
2018-09-23T02:04:05.276Z,12.80
2018-09-23T02:05:09.663Z,12.70
2018-09-23T02:06:13.775Z,12.70
2018-09-23T02:07:17.998Z,12.70
2018-09-23T02:08:22.461Z,12.70
2018-09-23T02:09:26.881Z,12.60
2018-09-23T02:10:31.437Z,12.60
2018-09-23T02:11:35.796Z,12.70
2018-09-23T02:12:39.878Z,12.80
2018-09-23T02:13:44.646Z,12.80
2018-09-23T02:14:48.953Z,12.80
2018-09-23T02:15:53.056Z,12.90
2018-09-23T02:16:57.476Z,12.80
2018-09-23T02:18:02.064Z,12.80
2018-09-23T02:19:06.734Z,12.70
2018-09-23T02:21:40.589Z,12.70
2018-09-23T02:22:46.151Z,12.70
2018-09-23T02:23:51.825Z,12.60
2018-09-23T02:24:56.389Z,12.70
2018-09-23T02:26:00.705Z,12.70
2018-09-23T02:27:04.873Z,12.70
2018-09-23T02:28:09.051Z,12.70
2018-09-23T02:29:13.216Z,12.60
2018-09-23T02:30:17.719Z,12.60
2018-09-23T02:31:22.146Z,12.60
2018-09-23T02:32:26.355Z,12.60
2018-09-23T02:33:30.861Z,12.60
2018-09-23T02:34:35.647Z,12.60
2018-09-23T02:35:39.888Z,12.50
2018-09-23T02:36:44.363Z,12.50
2018-09-23T02:37:48.793Z,12.60
2018-09-23T02:38:52.937Z,12.50
2018-09-23T02:39:57.368Z,12.60
2018-09-23T02:41:01.728Z,12.60
2018-09-23T02:42:06.014Z,12.60
2018-09-23T02:43:10.262Z,12.70
2018-09-23T02:44:14.365Z,12.70
2018-09-23T02:45:18.705Z,12.70
2018-09-23T02:46:23.035Z,12.70
2018-09-23T02:47:27.380Z,12.80
2018-09-23T02:48:31.946Z,12.80
2018-09-23T02:49:36.460Z,12.70
2018-09-23T02:50:41.141Z,12.70
2018-09-23T02:51:45.503Z,12.70
2018-09-23T02:52:49.674Z,12.70
2018-09-23T02:53:53.787Z,12.60
2018-09-23T02:54:58.204Z,12.70
2018-09-23T02:56:02.559Z,12.80
2018-09-23T02:57:06.777Z,12.80
2018-09-23T02:58:10.906Z,12.90
2018-09-23T02:59:15.061Z,12.90
2018-09-23T03:00:19.481Z,12.90
2018-09-23T03:01:23.776Z,12.90
2018-09-23T03:02:28.163Z,12.90
2018-09-23T03:03:32.356Z,12.80
2018-09-23T03:04:36.556Z,12.80
2018-09-23T03:05:40.912Z,12.80
2018-09-23T03:06:45.176Z,12.80
2018-09-23T03:07:49.483Z,12.80
2018-09-23T03:08:53.906Z,12.80
2018-09-23T03:09:58.170Z,12.80
2018-09-23T03:11:02.642Z,12.80
2018-09-23T03:12:06.755Z,12.80
2018-09-23T03:13:10.917Z,12.80
2018-09-23T03:14:15.232Z,12.80
2018-09-23T03:15:19.487Z,12.80
2018-09-23T03:16:23.544Z,12.80
2018-09-23T03:17:27.924Z,12.80
2018-09-23T03:18:32.361Z,12.90
2018-09-23T03:19:36.616Z,13.00
2018-09-23T03:20:40.952Z,13.00
2018-09-23T03:21:45.232Z,13.00
2018-09-23T03:22:49.436Z,13.00
2018-09-23T03:23:53.571Z,13.20
2018-09-23T03:24:57.836Z,13.20
2018-09-23T03:26:02.085Z,13.20
2018-09-23T03:27:06.384Z,13.20
2018-09-23T03:28:10.852Z,13.10
2018-09-23T03:29:15.370Z,13.20
2018-09-23T03:30:19.569Z,13.30
2018-09-23T03:31:23.755Z,13.30
2018-09-23T03:32:28.200Z,13.30
2018-09-23T03:33:32.660Z,13.30
2018-09-23T03:34:36.970Z,13.30
2018-09-23T03:35:41.239Z,13.40
2018-09-23T03:36:45.336Z,13.40
2018-09-23T03:37:49.420Z,13.40
2018-09-23T03:38:53.570Z,13.40
2018-09-23T03:39:57.777Z,13.50
2018-09-23T03:41:02.325Z,13.50
2018-09-23T03:42:06.691Z,13.50
2018-09-23T03:43:11.006Z,13.50
2018-09-23T03:44:15.370Z,13.50
2018-09-23T03:45:19.642Z,13.50
2018-09-23T03:46:24.205Z,13.50
2018-09-23T03:47:28.615Z,13.60
2018-09-23T03:48:33.085Z,13.60
2018-09-23T03:49:37.342Z,13.60
2018-09-23T03:50:41.756Z,13.60
2018-09-23T03:51:45.875Z,13.60
2018-09-23T03:52:50.043Z,13.50
2018-09-23T03:53:54.359Z,13.60
2018-09-23T03:54:58.718Z,13.60
2018-09-23T03:56:02.824Z,13.60
2018-09-23T03:57:07.179Z,13.50
2018-09-23T03:58:11.613Z,13.50
2018-09-23T03:59:15.885Z,13.50
2018-09-23T04:00:20.011Z,13.50
2018-09-23T04:01:24.247Z,13.50
2018-09-23T04:02:28.630Z,13.50
2018-09-23T04:03:32.970Z,13.50
2018-09-23T04:04:37.115Z,13.60
2018-09-23T04:05:41.531Z,13.50
2018-09-23T04:06:45.691Z,13.50
2018-09-23T04:07:50.120Z,13.60
2018-09-23T04:08:54.570Z,13.60
2018-09-23T04:09:59.096Z,13.50
2018-09-23T04:11:03.301Z,13.50
2018-09-23T04:12:07.565Z,13.50
2018-09-23T04:13:11.850Z,13.50
2018-09-23T04:14:15.986Z,13.50
2018-09-23T04:15:20.130Z,13.40
2018-09-23T04:16:24.449Z,13.40
2018-09-23T04:17:28.633Z,13.40
2018-09-23T04:18:32.978Z,13.40
2018-09-23T04:19:37.186Z,13.40
2018-09-23T04:20:41.494Z,13.50
2018-09-23T04:21:45.838Z,13.50
2018-09-23T04:22:51.449Z,13.50
2018-09-23T04:23:55.651Z,13.40
2018-09-23T04:24:59.952Z,13.50
2018-09-23T04:26:04.214Z,13.50
2018-09-23T04:27:08.261Z,13.50
2018-09-23T04:28:12.467Z,13.50
2018-09-23T04:29:16.741Z,13.50
2018-09-23T04:30:22.060Z,13.40
2018-09-23T04:31:26.356Z,13.40
2018-09-23T04:32:30.589Z,13.50
2018-09-23T04:33:34.895Z,13.40
2018-09-23T04:34:39.355Z,13.40
2018-09-23T04:35:43.532Z,13.40
2018-09-23T04:36:47.800Z,13.40
2018-09-23T04:37:51.937Z,13.50
2018-09-23T04:38:56.460Z,13.50
2018-09-23T04:40:01.242Z,13.50
2018-09-23T04:41:05.355Z,13.40
2018-09-23T04:42:09.637Z,13.40
2018-09-23T04:43:14.162Z,13.50
2018-09-23T04:44:18.314Z,13.40
2018-09-23T04:45:22.554Z,13.40
2018-09-23T04:46:27.242Z,13.40
2018-09-23T04:47:31.362Z,13.40
2018-09-23T04:48:35.758Z,13.40
2018-09-23T04:49:40.177Z,13.40
2018-09-23T04:50:44.342Z,13.40
2018-09-23T04:51:48.554Z,13.40
2018-09-23T04:52:52.736Z,13.40
2018-09-23T04:53:56.832Z,13.40
2018-09-23T04:55:01.144Z,13.40
2018-09-23T04:56:05.409Z,13.40
2018-09-23T04:57:09.687Z,13.40
2018-09-23T04:58:14.168Z,13.40
2018-09-23T04:59:18.421Z,13.40
2018-09-23T05:00:22.879Z,13.40
2018-09-23T05:01:27.413Z,13.40
2018-09-23T05:02:31.703Z,13.40
2018-09-23T05:03:36.416Z,13.40
2018-09-23T05:04:40.546Z,13.40
2018-09-23T05:05:44.834Z,13.40
2018-09-23T05:06:49.066Z,13.40
2018-09-23T05:07:53.230Z,13.40
2018-09-23T05:08:57.506Z,13.40
2018-09-23T05:10:01.754Z,13.40
2018-09-23T05:11:05.907Z,13.40
2018-09-23T05:12:10.271Z,13.40
2018-09-23T05:13:14.691Z,13.40
2018-09-23T05:14:19.104Z,13.40
2018-09-23T05:15:23.162Z,13.50
2018-09-23T05:16:27.493Z,13.50
2018-09-23T05:17:31.803Z,13.40
2018-09-23T05:18:35.923Z,13.40
2018-09-23T05:19:40.495Z,13.50
2018-09-23T05:20:44.654Z,13.40
2018-09-23T05:21:49.074Z,13.40
2018-09-23T05:22:53.368Z,13.40
2018-09-23T05:23:57.509Z,13.30
2018-09-23T05:25:02.225Z,13.30
2018-09-23T05:26:06.980Z,13.30
2018-09-23T05:27:11.560Z,13.30
2018-09-23T05:28:15.682Z,13.30
2018-09-23T05:29:19.782Z,13.40
2018-09-23T05:30:23.925Z,13.30
2018-09-23T05:31:28.011Z,13.30
2018-09-23T05:32:32.192Z,13.30
2018-09-23T05:33:36.710Z,13.40
2018-09-23T05:34:41.150Z,13.40
2018-09-23T05:35:45.339Z,13.40
2018-09-23T05:36:49.729Z,13.50
2018-09-23T05:37:54.199Z,13.60
2018-09-23T05:38:58.786Z,13.60
2018-09-23T05:40:03.264Z,13.60
2018-09-23T05:41:07.653Z,13.60
2018-09-23T05:42:12.085Z,13.60
2018-09-23T05:43:16.532Z,13.60
2018-09-23T05:44:20.845Z,13.60
2018-09-23T05:45:25.184Z,13.60
2018-09-23T05:46:29.549Z,13.50
2018-09-23T05:47:33.703Z,13.50
2018-09-23T05:48:38.185Z,13.50
2018-09-23T05:49:42.447Z,13.50
2018-09-23T05:50:46.714Z,13.50
2018-09-23T05:51:51.478Z,13.40
2018-09-23T05:52:56.002Z,13.50
2018-09-23T05:54:00.285Z,13.50
2018-09-23T05:55:04.477Z,13.60
2018-09-23T05:56:08.846Z,13.60
2018-09-23T05:57:13.258Z,13.70
2018-09-23T05:58:17.496Z,13.70
2018-09-23T05:59:21.979Z,13.70
2018-09-23T06:00:26.541Z,13.70
2018-09-23T06:01:30.718Z,13.70
2018-09-23T06:02:34.898Z,13.70
2018-09-23T06:03:39.401Z,13.70
2018-09-23T06:04:43.793Z,13.80
2018-09-23T06:05:47.910Z,13.80
2018-09-23T06:06:52.294Z,13.80
2018-09-23T06:07:56.675Z,13.90
2018-09-23T06:09:00.945Z,13.90
2018-09-23T06:10:05.572Z,13.90
2018-09-23T06:11:09.675Z,13.80
2018-09-23T06:12:14.212Z,13.80
2018-09-23T06:13:18.806Z,13.80
2018-09-23T06:14:23.414Z,13.80
2018-09-23T06:15:27.666Z,13.80
2018-09-23T06:16:31.807Z,13.90
2018-09-23T06:17:36.095Z,14.00
2018-09-23T06:18:40.291Z,14.00
2018-09-23T06:19:44.624Z,14.00
2018-09-23T06:20:48.960Z,13.90
2018-09-23T06:21:53.323Z,13.90
2018-09-23T06:22:57.609Z,13.90
2018-09-23T06:24:01.879Z,13.90
2018-09-23T06:25:06.129Z,13.90
2018-09-23T06:26:10.322Z,13.90
2018-09-23T06:27:14.847Z,13.90
2018-09-23T06:28:19.211Z,14.00
2018-09-23T06:29:23.354Z,14.00
2018-09-23T06:30:27.676Z,14.00
2018-09-23T06:31:31.780Z,13.90
2018-09-23T06:32:36.117Z,13.90
2018-09-23T06:33:40.579Z,13.90
2018-09-23T06:34:44.733Z,14.00
2018-09-23T06:35:48.808Z,14.00
2018-09-23T06:36:53.254Z,14.00
2018-09-23T06:37:57.778Z,14.00
2018-09-23T06:39:02.089Z,14.00
2018-09-23T06:40:06.790Z,14.00
2018-09-23T06:41:11.159Z,13.90
2018-09-23T06:42:16.000Z,14.00
2018-09-23T06:43:20.396Z,14.00
2018-09-23T06:44:24.674Z,14.00
2018-09-23T06:45:29.015Z,14.00
2018-09-23T06:46:33.309Z,14.00
2018-09-23T06:47:37.633Z,14.10
2018-09-23T06:48:41.734Z,14.00
2018-09-23T06:49:45.880Z,14.10
2018-09-23T06:50:50.361Z,14.10
2018-09-23T06:51:54.658Z,14.10
2018-09-23T06:52:58.950Z,14.10
2018-09-23T06:54:03.344Z,14.10
2018-09-23T06:55:07.566Z,14.10
2018-09-23T06:56:11.753Z,14.10
2018-09-23T06:57:15.963Z,14.20
2018-09-23T06:58:20.115Z,14.20
2018-09-23T07:00:43.342Z,14.30
2018-09-23T07:01:47.754Z,14.40
2018-09-23T07:02:51.905Z,14.50
2018-09-23T07:03:56.172Z,14.50
2018-09-23T07:05:00.521Z,14.50
2018-09-23T07:06:05.048Z,14.50
2018-09-23T07:07:09.206Z,14.50
2018-09-23T07:08:13.597Z,14.50
2018-09-23T07:09:18.277Z,14.50
2018-09-23T07:10:22.837Z,14.50
2018-09-23T07:11:27.032Z,14.50
2018-09-23T07:12:31.640Z,14.50
2018-09-23T07:13:35.918Z,14.50
2018-09-23T07:14:40.228Z,14.40
2018-09-23T07:15:44.689Z,14.40
2018-09-23T07:16:48.903Z,14.50
2018-09-23T07:17:53.450Z,14.60
2018-09-23T07:18:57.722Z,14.60
2018-09-23T07:20:02.044Z,14.60
2018-09-23T07:21:06.343Z,14.60
2018-09-23T07:22:10.470Z,14.60
2018-09-23T07:23:14.598Z,14.50
2018-09-23T07:24:19.121Z,14.60
2018-09-23T07:25:23.408Z,14.70
2018-09-23T07:26:27.727Z,14.70
2018-09-23T07:27:31.980Z,14.80
2018-09-23T07:28:36.123Z,14.80
2018-09-23T07:29:40.434Z,14.80
2018-09-23T07:30:44.836Z,14.80
2018-09-23T07:31:49.181Z,14.80
2018-09-23T07:32:53.740Z,14.80
2018-09-23T07:33:57.985Z,14.80
2018-09-23T07:35:02.509Z,14.90
2018-09-23T07:36:06.556Z,14.90
2018-09-23T07:37:10.948Z,15.00
2018-09-23T07:38:15.326Z,15.00
2018-09-23T07:39:19.709Z,15.00
2018-09-23T07:40:23.799Z,15.00
2018-09-23T07:41:27.906Z,15.10
2018-09-23T07:42:32.495Z,15.10
2018-09-23T07:43:36.668Z,15.20
2018-09-23T07:44:40.894Z,15.30
2018-09-23T07:45:45.115Z,15.30
2018-09-23T07:46:49.490Z,15.40
2018-09-23T07:47:53.895Z,15.50
2018-09-23T07:48:58.281Z,15.50
2018-09-23T07:50:02.640Z,15.50
2018-09-23T07:51:06.865Z,15.50
2018-09-23T07:52:11.028Z,15.60
2018-09-23T07:53:15.173Z,15.70
2018-09-23T07:54:19.313Z,15.70
2018-09-23T07:55:23.393Z,15.70
2018-09-23T07:56:27.781Z,15.70
2018-09-23T07:57:32.257Z,15.80
2018-09-23T07:58:36.810Z,15.80
2018-09-23T07:59:41.183Z,15.80
2018-09-23T08:00:45.242Z,15.80
2018-09-23T08:01:49.614Z,15.90
2018-09-23T08:02:53.706Z,16.00
2018-09-23T08:03:58.086Z,16.00
2018-09-23T08:05:02.442Z,16.10
2018-09-23T08:06:07.053Z,16.10
2018-09-23T08:07:11.683Z,16.10
2018-09-23T08:08:16.082Z,16.30
2018-09-23T08:09:20.195Z,16.20
2018-09-23T08:10:24.719Z,16.30
2018-09-23T08:11:28.893Z,16.40
2018-09-23T08:12:33.296Z,16.40
2018-09-23T08:13:38.438Z,16.40
2018-09-23T08:14:43.190Z,16.50
2018-09-23T08:15:47.156Z,16.50
2018-09-23T08:16:51.737Z,16.50
2018-09-23T08:17:55.921Z,16.50
2018-09-23T08:19:00.144Z,16.50
2018-09-23T08:20:04.586Z,16.40
2018-09-23T08:21:08.784Z,16.40
2018-09-23T08:22:12.906Z,16.50
2018-09-23T08:23:17.223Z,16.60
2018-09-23T08:24:21.337Z,16.70
2018-09-23T08:25:25.739Z,16.70
2018-09-23T08:26:30.060Z,16.70
2018-09-23T08:27:34.382Z,16.70
2018-09-23T08:28:38.765Z,16.80
2018-09-23T08:29:43.126Z,16.70
2018-09-23T08:30:47.449Z,16.80
2018-09-23T08:31:51.702Z,16.80
2018-09-23T08:32:56.011Z,16.80
2018-09-23T08:34:00.130Z,16.90
2018-09-23T08:35:04.359Z,16.90
2018-09-23T08:36:08.609Z,16.90
2018-09-23T08:37:13.076Z,17.00
2018-09-23T08:38:17.301Z,17.10
2018-09-23T08:39:21.716Z,17.20
2018-09-23T08:40:25.838Z,17.30
2018-09-23T08:41:30.069Z,17.20
2018-09-23T08:42:34.538Z,17.30
2018-09-23T08:43:38.922Z,17.30
2018-09-23T08:44:43.034Z,17.40
2018-09-23T08:45:47.319Z,17.40
2018-09-23T08:46:51.687Z,17.40
2018-09-23T08:47:56.714Z,17.40
2018-09-23T08:49:01.093Z,17.40
2018-09-23T08:50:05.280Z,17.40
2018-09-23T08:51:09.534Z,17.60
2018-09-23T08:52:13.824Z,17.70
2018-09-23T08:53:18.218Z,17.70
2018-09-23T08:54:22.581Z,17.90
2018-09-23T08:55:26.920Z,17.90
2018-09-23T08:56:31.072Z,18.00
2018-09-23T08:57:35.373Z,18.00
2018-09-23T08:58:39.696Z,18.10
2018-09-23T08:59:44.186Z,18.10
2018-09-23T09:00:48.306Z,18.30
2018-09-23T09:01:52.668Z,18.40
2018-09-23T09:02:56.905Z,18.50
2018-09-23T09:04:01.259Z,18.60
2018-09-23T09:05:06.019Z,18.60
2018-09-23T09:06:10.459Z,18.70
2018-09-23T09:07:14.672Z,18.80
2018-09-23T09:08:18.794Z,18.80
2018-09-23T09:09:23.228Z,18.80
2018-09-23T09:10:27.847Z,18.80
2018-09-23T09:11:32.168Z,18.80
2018-09-23T09:12:36.462Z,18.80
2018-09-23T09:13:40.975Z,18.90
2018-09-23T09:14:45.498Z,19.00
2018-09-23T09:15:49.841Z,19.00
2018-09-23T09:16:54.099Z,19.10
2018-09-23T09:17:58.158Z,19.20
2018-09-23T09:19:02.414Z,19.20
2018-09-23T09:20:06.925Z,19.20
2018-09-23T09:21:11.131Z,19.20
2018-09-23T09:22:15.387Z,19.30
2018-09-23T09:23:19.650Z,19.30
2018-09-23T09:24:23.822Z,19.30
2018-09-23T09:25:28.975Z,19.30
2018-09-23T09:26:33.188Z,19.30
2018-09-23T09:27:37.536Z,19.40
2018-09-23T09:28:41.777Z,19.40
2018-09-23T09:29:45.852Z,19.40
2018-09-23T09:30:50.326Z,19.50
2018-09-23T09:31:54.526Z,19.50
2018-09-23T09:32:59.025Z,19.60
2018-09-23T09:34:03.395Z,19.60
2018-09-23T09:35:07.734Z,19.60
2018-09-23T09:36:11.883Z,19.60
2018-09-23T09:37:16.172Z,19.70
2018-09-23T09:38:20.356Z,19.70
2018-09-23T09:39:24.709Z,19.70
2018-09-23T09:40:29.031Z,19.80
2018-09-23T09:41:33.086Z,19.80
2018-09-23T09:42:37.157Z,19.90
2018-09-23T09:43:41.530Z,19.90
2018-09-23T09:44:45.720Z,19.90
2018-09-23T09:45:49.891Z,19.90
2018-09-23T09:46:53.969Z,19.90
2018-09-23T09:47:58.405Z,20.00
2018-09-23T09:49:02.561Z,20.00
2018-09-23T09:50:06.997Z,20.20
2018-09-23T09:51:11.497Z,20.20
2018-09-23T09:52:15.638Z,20.20
2018-09-23T09:53:19.694Z,20.30
2018-09-23T09:54:23.779Z,20.30
2018-09-23T09:55:28.103Z,20.40
2018-09-23T09:56:32.358Z,20.40
2018-09-23T09:57:36.524Z,20.40
2018-09-23T09:58:40.881Z,20.50
2018-09-23T09:59:44.951Z,20.50
2018-09-23T10:00:49.107Z,20.60
2018-09-23T10:01:53.337Z,20.60
2018-09-23T10:02:57.550Z,20.70
2018-09-23T10:04:01.935Z,20.70
2018-09-23T10:05:06.008Z,20.70
2018-09-23T10:06:10.376Z,20.70
2018-09-23T10:07:14.560Z,20.70
2018-09-23T10:08:18.879Z,20.70
2018-09-23T10:09:23.126Z,20.60
2018-09-23T10:10:27.763Z,20.60
2018-09-23T10:11:31.996Z,20.70
2018-09-23T10:12:36.265Z,20.60
2018-09-23T10:13:40.467Z,20.70
2018-09-23T10:14:44.550Z,20.60
2018-09-23T10:15:48.642Z,20.60
2018-09-23T10:16:52.759Z,20.70
2018-09-23T10:17:56.848Z,20.60
2018-09-23T10:19:01.222Z,20.70
2018-09-23T10:20:05.330Z,20.70
2018-09-23T10:21:09.762Z,20.80
2018-09-23T10:22:13.905Z,20.80
2018-09-23T10:23:18.161Z,20.90
2018-09-23T10:24:22.472Z,20.90
2018-09-23T10:25:26.956Z,20.90
2018-09-23T10:26:31.197Z,20.90
2018-09-23T10:27:35.757Z,20.90
2018-09-23T10:28:40.117Z,20.90
2018-09-23T10:29:44.224Z,21.00
2018-09-23T10:30:48.440Z,21.10
2018-09-23T10:31:53.238Z,21.10
2018-09-23T10:32:57.226Z,21.10
2018-09-23T10:34:01.368Z,21.20
2018-09-23T10:35:05.663Z,21.20
2018-09-23T10:36:10.016Z,21.30
2018-09-23T10:37:14.135Z,21.30
2018-09-23T10:38:18.405Z,21.30
2018-09-23T10:39:22.619Z,21.40
2018-09-23T10:40:27.060Z,21.40
2018-09-23T10:41:31.318Z,21.40
2018-09-23T10:42:35.472Z,21.50
2018-09-23T10:43:39.856Z,21.50
2018-09-23T10:44:44.341Z,21.60
2018-09-23T10:45:48.583Z,21.60
2018-09-23T10:46:53.008Z,21.70
2018-09-23T10:47:57.142Z,21.70
2018-09-23T10:49:01.434Z,21.80
2018-09-23T10:50:06.150Z,21.80
2018-09-23T10:51:10.635Z,21.90
2018-09-23T10:52:14.773Z,22.00
2018-09-23T10:53:18.970Z,22.00
2018-09-23T10:54:23.158Z,22.00
2018-09-23T10:55:27.407Z,22.10
2018-09-23T10:56:31.985Z,22.10
2018-09-23T10:57:36.333Z,22.10
2018-09-23T10:58:40.904Z,22.10
2018-09-23T10:59:45.384Z,22.20
2018-09-23T11:00:49.924Z,22.20
2018-09-23T11:01:54.512Z,22.20
2018-09-23T11:02:58.753Z,22.20
2018-09-23T11:04:03.203Z,22.20
2018-09-23T11:05:07.375Z,22.20
2018-09-23T11:06:11.676Z,22.20
2018-09-23T11:07:15.957Z,22.30
2018-09-23T11:08:20.105Z,22.20
2018-09-23T11:09:24.444Z,22.30
2018-09-23T11:10:28.873Z,22.20
2018-09-23T11:11:33.218Z,22.20
2018-09-23T11:12:37.572Z,22.20
2018-09-23T11:13:41.851Z,22.20
2018-09-23T11:14:46.399Z,22.20
2018-09-23T11:15:50.625Z,22.30
2018-09-23T11:16:55.118Z,22.30
2018-09-23T11:17:59.341Z,22.30
2018-09-23T11:19:03.609Z,22.30
2018-09-23T11:20:07.836Z,22.30
2018-09-23T11:21:12.021Z,22.30
2018-09-23T11:22:16.608Z,22.30
2018-09-23T11:23:21.180Z,22.20
2018-09-23T11:24:25.329Z,22.20
2018-09-23T11:25:30.023Z,22.30
2018-09-23T11:26:35.209Z,22.30
2018-09-23T11:27:39.647Z,22.30
2018-09-23T11:28:44.010Z,22.30
2018-09-23T11:29:48.186Z,22.30
2018-09-23T11:30:52.575Z,22.30
2018-09-23T11:31:57.025Z,22.30
2018-09-23T11:33:01.135Z,22.40
2018-09-23T11:34:05.476Z,22.40
2018-09-23T11:35:09.984Z,22.50
2018-09-23T11:36:14.193Z,22.50
2018-09-23T11:37:18.500Z,22.60
2018-09-23T11:38:22.866Z,22.60
2018-09-23T11:39:27.384Z,22.60
2018-09-23T11:40:31.530Z,22.60
2018-09-23T11:41:35.928Z,22.70
2018-09-23T11:42:40.171Z,22.80
2018-09-23T11:43:44.557Z,22.80
2018-09-23T11:44:48.912Z,23.00
2018-09-23T11:45:53.313Z,23.00
2018-09-23T11:46:57.573Z,23.00
2018-09-23T11:48:01.918Z,23.10
2018-09-23T11:49:06.199Z,23.10
2018-09-23T11:50:10.307Z,23.10
2018-09-23T11:51:14.930Z,23.20
2018-09-23T11:52:19.272Z,23.20
2018-09-23T11:53:23.474Z,23.20
2018-09-23T11:54:27.787Z,23.20
2018-09-23T11:55:32.304Z,23.30
2018-09-23T11:56:36.514Z,23.30
2018-09-23T11:57:40.884Z,23.30
2018-09-23T11:58:45.116Z,23.40
2018-09-23T11:59:49.369Z,23.40
2018-09-23T12:00:53.559Z,23.40
2018-09-23T12:01:59.474Z,23.50
2018-09-23T12:03:03.679Z,23.40
2018-09-23T12:04:07.918Z,23.40
2018-09-23T12:05:12.037Z,23.50
2018-09-23T12:06:16.175Z,23.50
2018-09-23T12:07:20.519Z,23.50
2018-09-23T12:08:24.820Z,23.50
2018-09-23T12:09:29.082Z,23.60
2018-09-23T12:10:33.405Z,23.60
2018-09-23T12:11:37.597Z,23.60
2018-09-23T12:12:42.166Z,23.60
2018-09-23T12:13:46.616Z,23.60
2018-09-23T12:14:50.950Z,23.60
2018-09-23T12:15:55.290Z,23.60
2018-09-23T12:16:59.566Z,23.70
2018-09-23T12:18:03.833Z,23.70
2018-09-23T12:19:08.006Z,23.70
2018-09-23T12:20:12.197Z,23.70
2018-09-23T12:21:16.638Z,23.70
2018-09-23T12:22:20.928Z,23.80
2018-09-23T12:23:25.075Z,23.80
2018-09-23T12:24:29.465Z,23.80
2018-09-23T12:25:33.615Z,23.90
2018-09-23T12:26:37.770Z,23.90
2018-09-23T12:27:42.042Z,24.00
2018-09-23T12:28:46.201Z,24.00
2018-09-23T12:29:50.577Z,24.10
2018-09-23T12:30:54.804Z,24.10
2018-09-23T12:31:59.390Z,24.10
2018-09-23T12:33:03.828Z,24.20
2018-09-23T12:34:08.175Z,24.20
2018-09-23T12:35:12.409Z,24.30
2018-09-23T12:36:16.784Z,24.40
2018-09-23T12:37:21.268Z,24.50
2018-09-23T12:38:25.474Z,24.50
2018-09-23T12:39:31.761Z,24.60
2018-09-23T12:40:35.971Z,24.70
2018-09-23T12:41:40.807Z,24.80
2018-09-23T12:42:44.923Z,24.80
2018-09-23T12:43:49.174Z,24.80
2018-09-23T12:44:53.493Z,24.70
2018-09-23T12:45:58.228Z,24.70
2018-09-23T12:47:02.377Z,24.60
2018-09-23T12:48:06.493Z,24.60
2018-09-23T12:49:10.848Z,24.60
2018-09-23T12:50:15.061Z,24.60
2018-09-23T12:51:19.285Z,24.60
2018-09-23T12:52:23.423Z,24.60
2018-09-23T12:53:27.507Z,24.60
2018-09-23T12:54:31.901Z,24.70
2018-09-23T12:55:36.242Z,24.70
2018-09-23T12:56:40.718Z,24.80
2018-09-23T12:57:45.259Z,24.90
2018-09-23T12:58:49.427Z,24.90
2018-09-23T12:59:53.576Z,25.10
2018-09-23T13:00:58.072Z,25.20
2018-09-23T13:02:02.279Z,25.20
2018-09-23T13:03:06.881Z,25.30
2018-09-23T13:04:11.343Z,25.40
2018-09-23T13:05:15.553Z,25.50
2018-09-23T13:06:20.208Z,25.60
2018-09-23T13:07:24.520Z,25.60
2018-09-23T13:08:28.634Z,25.70
2018-09-23T13:09:33.308Z,25.80
2018-09-23T13:10:37.896Z,25.70
2018-09-23T13:11:42.304Z,25.80
2018-09-23T13:12:46.422Z,25.70
2018-09-23T13:13:50.562Z,25.80
2018-09-23T13:14:54.737Z,25.90
2018-09-23T13:15:58.931Z,25.90
2018-09-23T13:17:03.147Z,25.90
2018-09-23T13:18:07.453Z,25.90
2018-09-23T13:19:11.473Z,26.00
2018-09-23T13:20:15.927Z,26.00
2018-09-23T13:21:20.057Z,26.00
2018-09-23T13:22:24.235Z,25.90
2018-09-23T13:23:28.734Z,26.00
2018-09-23T13:24:33.012Z,26.10
2018-09-23T13:25:37.314Z,26.30
2018-09-23T13:26:41.505Z,26.30
2018-09-23T13:27:45.735Z,26.40
2018-09-23T13:28:49.912Z,26.40
2018-09-23T13:29:54.374Z,26.40
2018-09-23T13:30:58.717Z,26.30
2018-09-23T13:32:03.126Z,26.50
2018-09-23T13:33:07.381Z,26.60
2018-09-23T13:34:11.500Z,26.80
2018-09-23T13:35:15.538Z,26.80
2018-09-23T13:36:19.756Z,26.90
2018-09-23T13:37:24.047Z,26.90
2018-09-23T13:38:28.223Z,26.70
2018-09-23T13:39:32.282Z,26.40
2018-09-23T13:40:36.533Z,26.30
2018-09-23T13:41:40.856Z,26.30
2018-09-23T13:42:44.996Z,26.20
2018-09-23T13:43:49.288Z,26.20
2018-09-23T13:44:53.679Z,26.30
2018-09-23T13:45:57.924Z,26.50
2018-09-23T13:47:02.108Z,26.80
2018-09-23T13:48:06.315Z,26.80
2018-09-23T13:49:10.437Z,26.70
2018-09-23T13:50:14.561Z,26.60
2018-09-23T13:51:19.006Z,26.60